Time;durP1;ratioP1;P1;durP2;ratioP2;P2;SDS_P1;SDS_P2;PMS_P1;PMS_P2;Temp;Humidity;BMP_temperature;BMP_pressure;BME280_temperature;BME280_humidity;BME280_pressure;Samples;Min_cycle;Max_cycle;Signal;HPM_P1;HPM_P2
2022/05/09 00:01:10;;;;;;;;;;;16.40;43.40;;;;;;2292687;54;20338;-74
2022/05/09 00:03:37;;;;;;;;;;;16.30;42.90;;;;;;2413988;54;20080;-75
2022/05/09 00:06:04;;;;;;;;;;;16.40;43.10;;;;;;2294941;54;20771;-77
2022/05/09 00:08:30;;;;;;;;;;;16.30;43.00;;;;;;2288272;54;20104;-78
2022/05/09 00:10:56;;;;;;;;;;;16.20;43.10;;;;;;2293059;54;20085;-76
2022/05/09 00:13:22;;;;;;;;;;;16.20;43.30;;;;;;2298119;54;20153;-76
2022/05/09 00:15:49;;;;;;;;;;;16.10;43.20;;;;;;2312594;55;20135;-75
2022/05/09 00:18:17;;;;;;;;;;;16.20;43.40;;;;;;2349755;54;20337;-75
2022/05/09 00:20:46;;;;;;;;;;;16.10;43.40;;;;;;2293039;54;20140;-73
2022/05/09 00:23:13;;;;;;;;;;;16.10;43.50;;;;;;2308990;55;20096;-76
2022/05/09 00:25:40;;;;;;;;;;;16.00;43.50;;;;;;2292376;54;20779;-73
2022/05/09 00:28:07;;;;;;;;;;;16.00;43.50;;;;;;2292093;54;20080;-73
2022/05/09 00:30:33;;;;;;;;;;;16.00;43.60;;;;;;2360085;54;20125;-74
2022/05/09 00:32:59;;;;;;;;;;;15.90;43.60;;;;;;2293699;54;20069;-75
2022/05/09 00:35:26;;;;;;;;;;;15.90;43.60;;;;;;2293605;54;20450;-73
2022/05/09 00:37:53;;;;;;;;;;;15.90;43.60;;;;;;2293039;54;20073;-73
2022/05/09 00:40:19;;;;;;;;;;;15.90;43.60;;;;;;2307575;54;20081;-74
2022/05/09 00:42:46;;;;;;;;;;;15.80;43.70;;;;;;2328474;54;20081;-74
2022/05/09 00:45:13;;;;;;;;;;;15.80;43.80;;;;;;2289813;54;20097;-75
2022/05/09 00:47:39;;;;;;;;;;;15.80;43.80;;;;;;2293129;54;20361;-76
2022/05/09 00:50:06;;;;;;;;;;;15.70;43.80;;;;;;2292931;54;22413;-75
2022/05/09 00:52:37;;;;;;;;;;;15.70;43.90;;;;;;2293240;54;20137;-74
2022/05/09 00:55:06;;;;;;;;;;;15.60;43.80;;;;;;2292899;54;20411;-75
2022/05/09 00:57:35;;;;;;;;;;;15.60;43.80;;;;;;2293635;54;20080;-74
2022/05/09 01:00:07;;;;;;;;;;;15.60;43.90;;;;;;2292613;54;20060;-76
2022/05/09 01:02:34;;;;;;;;;;;15.50;43.90;;;;;;2293045;54;20057;-74
2022/05/09 01:05:00;;;;;;;;;;;15.50;43.90;;;;;;2507040;54;20424;-76
2022/05/09 01:07:27;;;;;;;;;;;15.50;44.00;;;;;;2293493;54;20581;-74
2022/05/09 01:09:53;;;;;;;;;;;15.40;44.00;;;;;;2518333;54;20539;-76
2022/05/09 01:12:23;;;;;;;;;;;15.40;44.10;;;;;;2366489;54;20121;-73
2022/05/09 01:14:49;;;;;;;;;;;15.30;44.00;;;;;;2288978;54;20077;-75
2022/05/09 01:17:16;;;;;;;;;;;15.30;44.10;;;;;;2286958;55;20116;-76
2022/05/09 01:19:45;;;;;;;;;;;15.30;44.20;;;;;;2283016;56;20166;-76
2022/05/09 01:22:25;;;;;;;;;;;15.30;44.20;;;;;;2295449;54;20083;-75
2022/05/09 01:24:53;;;;;;;;;;;15.20;44.20;;;;;;2290389;54;20060;-75
2022/05/09 01:27:19;;;;;;;;;;;15.20;44.30;;;;;;2423527;54;20708;-74
2022/05/09 01:29:53;;;;;;;;;;;15.10;44.30;;;;;;2317369;54;20121;-76
2022/05/09 01:32:24;;;;;;;;;;;15.10;44.30;;;;;;2366275;55;20124;-73
2022/05/09 01:34:52;;;;;;;;;;;15.10;44.50;;;;;;2273557;56;20083;-77
2022/05/09 01:37:18;;;;;;;;;;;15.10;44.50;;;;;;2392316;54;20065;-75
2022/05/09 01:39:45;;;;;;;;;;;15.00;44.40;;;;;;2464348;54;20114;-75
2022/05/09 01:42:13;;;;;;;;;;;15.00;44.50;;;;;;2299637;55;20330;-74
2022/05/09 01:44:39;;;;;;;;;;;14.90;44.50;;;;;;2421817;54;20135;-74
2022/05/09 01:49:51;;;;;;;;;;;14.90;44.60;;;;;;2360914;54;20117;-75
2022/05/09 01:52:19;;;;;;;;;;;14.90;44.60;;;;;;2358983;54;20817;-75
2022/05/09 01:54:46;;;;;;;;;;;14.90;44.70;;;;;;2291235;54;20342;-75
2022/05/09 01:57:13;;;;;;;;;;;14.80;44.70;;;;;;2326450;54;20117;-74
2022/05/09 01:59:39;;;;;;;;;;;14.80;44.90;;;;;;2381443;54;20061;-75
2022/05/09 02:02:10;;;;;;;;;;;14.80;44.90;;;;;;2292981;54;20080;-77
2022/05/09 02:04:38;;;;;;;;;;;14.70;44.90;;;;;;2274520;56;20052;-73
2022/05/09 02:07:09;;;;;;;;;;;14.70;44.90;;;;;;2290738;54;20188;-76
2022/05/09 02:09:50;;;;;;;;;;;14.70;45.00;;;;;;2296946;54;20123;-77
2022/05/09 02:12:17;;;;;;;;;;;14.70;45.00;;;;;;2292456;54;20080;-76
2022/05/09 02:14:43;;;;;;;;;;;14.60;45.00;;;;;;2296180;54;20067;-77
2022/05/09 02:17:11;;;;;;;;;;;14.60;45.10;;;;;;2289235;54;20460;-74
2022/05/09 02:19:37;;;;;;;;;;;14.60;45.10;;;;;;2390697;54;20085;-76
2022/05/09 02:22:04;;;;;;;;;;;14.60;45.20;;;;;;2527823;54;20137;-76
2022/05/09 02:24:30;;;;;;;;;;;14.60;45.20;;;;;;2293496;54;20328;-76
2022/05/09 02:26:56;;;;;;;;;;;14.60;45.30;;;;;;2292448;54;20113;-76
2022/05/09 02:29:23;;;;;;;;;;;14.50;45.20;;;;;;2447567;54;20720;-73
2022/05/09 02:31:50;;;;;;;;;;;14.50;45.30;;;;;;2519925;54;20076;-74
2022/05/09 02:34:16;;;;;;;;;;;14.60;45.30;;;;;;2293194;54;20077;-74
2022/05/09 02:36:43;;;;;;;;;;;14.50;45.30;;;;;;2293886;54;20064;-74
2022/05/09 02:39:09;;;;;;;;;;;14.50;45.30;;;;;;2293674;54;20349;-76
2022/05/09 02:41:36;;;;;;;;;;;14.50;45.40;;;;;;2349606;54;20136;-74
2022/05/09 02:44:03;;;;;;;;;;;14.40;45.40;;;;;;2293055;54;20168;-74
2022/05/09 02:46:29;;;;;;;;;;;14.40;45.40;;;;;;2293440;54;20294;-73
2022/05/09 02:48:59;;;;;;;;;;;14.40;45.50;;;;;;2471733;54;20438;-76
2022/05/09 02:51:27;;;;;;;;;;;14.40;45.50;;;;;;2288358;54;20107;-75
2022/05/09 02:53:54;;;;;;;;;;;14.30;45.50;;;;;;2293521;54;20148;-76
2022/05/09 02:56:22;;;;;;;;;;;14.30;45.50;;;;;;2292559;54;20076;-76
2022/05/09 02:58:48;;;;;;;;;;;14.30;45.60;;;;;;2293678;54;20072;-75
2022/05/09 03:01:16;;;;;;;;;;;14.30;46.20;;;;;;2364049;54;20089;-76
2022/05/09 03:06:27;;;;;;;;;;;14.20;45.60;;;;;;2292845;54;20084;-74
2022/05/09 03:08:53;;;;;;;;;;;14.20;45.60;;;;;;2364513;54;20068;-76
2022/05/09 03:11:19;;;;;;;;;;;14.20;45.60;;;;;;2291658;54;20137;-74
2022/05/09 03:13:46;;;;;;;;;;;14.10;45.60;;;;;;2377421;54;20071;-75
2022/05/09 03:16:12;;;;;;;;;;;14.10;45.60;;;;;;2295198;54;20084;-75
2022/05/09 03:18:38;;;;;;;;;;;14.10;45.70;;;;;;2293126;54;20077;-73
2022/05/09 03:21:05;;;;;;;;;;;14.10;45.70;;;;;;2350418;54;20056;-74
2022/05/09 03:23:35;;;;;;;;;;;14.00;45.70;;;;;;2359724;54;20090;-73
2022/05/09 03:26:01;;;;;;;;;;;14.00;45.60;;;;;;2349499;54;20135;-74
2022/05/09 03:28:28;;;;;;;;;;;14.00;45.70;;;;;;2283211;55;20081;-75
2022/05/09 03:30:54;;;;;;;;;;;13.90;45.70;;;;;;2293179;54;20069;-76
2022/05/09 03:33:24;;;;;;;;;;;13.90;45.70;;;;;;2293188;54;20075;-74
2022/05/09 03:35:52;;;;;;;;;;;13.90;45.80;;;;;;2271068;56;20109;-76
2022/05/09 03:38:18;;;;;;;;;;;13.90;45.90;;;;;;2292775;54;20805;-76
2022/05/09 03:40:46;;;;;;;;;;;13.80;45.80;;;;;;2293194;54;20128;-75
2022/05/09 03:43:12;;;;;;;;;;;13.80;46.00;;;;;;2528241;54;20057;-76
2022/05/09 03:45:40;;;;;;;;;;;13.80;46.00;;;;;;2308718;54;20061;-76
2022/05/09 03:48:07;;;;;;;;;;;13.80;46.20;;;;;;2384715;54;20380;-75
2022/05/09 03:50:33;;;;;;;;;;;13.70;46.20;;;;;;2467573;54;20076;-75
2022/05/09 03:53:00;;;;;;;;;;;13.70;46.20;;;;;;2293314;54;20072;-74
2022/05/09 03:55:26;;;;;;;;;;;13.70;46.30;;;;;;2292467;54;20580;-75
2022/05/09 03:57:55;;;;;;;;;;;13.70;46.40;;;;;;2292325;54;20172;-73
2022/05/09 04:00:26;;;;;;;;;;;13.70;46.40;;;;;;2296201;54;20113;-74
2022/05/09 04:02:52;;;;;;;;;;;13.70;46.40;;;;;;2344863;54;20136;-76
2022/05/09 04:05:20;;;;;;;;;;;13.70;46.30;;;;;;2293524;54;20760;-74
2022/05/09 04:07:49;;;;;;;;;;;13.70;46.40;;;;;;2320506;54;20104;-74
2022/05/09 04:10:17;;;;;;;;;;;13.60;46.40;;;;;;2278731;54;20064;-76
2022/05/09 04:12:44;;;;;;;;;;;13.60;46.50;;;;;;2292502;54;20133;-74
2022/05/09 04:17:55;;;;;;;;;;;13.60;46.60;;;;;;2293053;54;20073;-75
2022/05/09 04:20:21;;;;;;;;;;;13.60;46.60;;;;;;2350340;54;21298;-75
2022/05/09 04:22:48;;;;;;;;;;;13.60;46.70;;;;;;2294332;55;20072;-76
2022/05/09 04:25:15;;;;;;;;;;;13.50;46.60;;;;;;2288900;54;20408;-75
2022/05/09 04:27:41;;;;;;;;;;;13.60;46.80;;;;;;2331427;54;20384;-76
2022/05/09 04:30:09;;;;;;;;;;;13.50;46.70;;;;;;2280908;54;20129;-74
2022/05/09 04:32:35;;;;;;;;;;;13.50;46.80;;;;;;2338342;54;20144;-74
2022/05/09 04:35:02;;;;;;;;;;;13.50;46.90;;;;;;2300126;54;20073;-74
2022/05/09 04:37:28;;;;;;;;;;;13.50;46.90;;;;;;2293059;54;20136;-76
2022/05/09 04:39:55;;;;;;;;;;;13.50;46.90;;;;;;2293736;54;20117;-76
2022/05/09 04:42:21;;;;;;;;;;;13.50;46.90;;;;;;2293291;54;20419;-75
2022/05/09 04:44:48;;;;;;;;;;;13.50;47.00;;;;;;2511087;54;20561;-74
2022/05/09 04:47:14;;;;;;;;;;;13.50;47.00;;;;;;2323562;54;20084;-76
2022/05/09 04:49:41;;;;;;;;;;;13.50;47.00;;;;;;2292991;54;20073;-76
2022/05/09 04:52:09;;;;;;;;;;;13.50;47.10;;;;;;2292862;54;20064;-76
2022/05/09 04:54:35;;;;;;;;;;;13.60;47.20;;;;;;2394926;54;20112;-75
2022/05/09 04:57:01;;;;;;;;;;;13.60;47.20;;;;;;2449709;54;20136;-76
2022/05/09 04:59:27;;;;;;;;;;;13.60;47.20;;;;;;2447990;54;20072;-74
2022/05/09 05:01:54;;;;;;;;;;;13.50;47.20;;;;;;2308764;54;20077;-75
2022/05/09 05:04:22;;;;;;;;;;;13.60;47.40;;;;;;2292504;54;20088;-76
2022/05/09 05:06:49;;;;;;;;;;;13.60;47.40;;;;;;2369715;54;20067;-76
2022/05/09 05:09:15;;;;;;;;;;;13.60;47.50;;;;;;2290871;54;20310;-75
2022/05/09 05:11:41;;;;;;;;;;;13.60;47.50;;;;;;2348257;54;20093;-75
2022/05/09 05:14:08;;;;;;;;;;;13.60;47.60;;;;;;2292350;54;20116;-76
2022/05/09 05:19:19;;;;;;;;;;;13.60;47.70;;;;;;2302307;54;20800;-74
2022/05/09 05:21:45;;;;;;;;;;;13.70;47.80;;;;;;2372094;54;20060;-76
2022/05/09 05:24:14;;;;;;;;;;;13.80;47.90;;;;;;2292960;54;20124;-76
2022/05/09 05:26:44;;;;;;;;;;;13.80;48.00;;;;;;2332825;54;20071;-72
2022/05/09 05:29:13;;;;;;;;;;;13.80;48.00;;;;;;2310245;54;20112;-75
2022/05/09 05:31:40;;;;;;;;;;;13.90;48.10;;;;;;2296743;54;20076;-74
2022/05/09 05:34:06;;;;;;;;;;;13.90;48.20;;;;;;2313789;54;20073;-76
2022/05/09 05:36:33;;;;;;;;;;;14.00;48.30;;;;;;2292814;54;20105;-75
2022/05/09 05:39:00;;;;;;;;;;;14.00;48.30;;;;;;2295861;54;20101;-74
2022/05/09 05:41:27;;;;;;;;;;;14.10;48.40;;;;;;2315505;54;20306;-74
2022/05/09 05:43:53;;;;;;;;;;;14.20;48.50;;;;;;2461875;54;20069;-75
2022/05/09 05:46:20;;;;;;;;;;;14.20;48.50;;;;;;2291946;54;20789;-74
2022/05/09 05:48:46;;;;;;;;;;;14.30;48.70;;;;;;2295604;54;20067;-75
2022/05/09 05:51:14;;;;;;;;;;;14.30;48.70;;;;;;2290162;54;20084;-76
2022/05/09 05:53:41;;;;;;;;;;;14.40;48.80;;;;;;2293605;54;20169;-75
2022/05/09 05:56:07;;;;;;;;;;;14.50;48.90;;;;;;2291825;54;20072;-76
2022/05/09 05:58:33;;;;;;;;;;;14.60;49.00;;;;;;2360093;54;20065;-74
2022/05/09 06:00:59;;;;;;;;;;;14.60;49.00;;;;;;2292648;54;20065;-76
2022/05/09 06:03:26;;;;;;;;;;;14.70;49.20;;;;;;2294007;54;20068;-74
2022/05/09 06:05:52;;;;;;;;;;;14.80;49.20;;;;;;2293235;54;20144;-76
2022/05/09 06:08:18;;;;;;;;;;;14.90;49.30;;;;;;2293154;54;20124;-76
2022/05/09 06:10:46;;;;;;;;;;;15.00;49.40;;;;;;2300331;54;20089;-74
2022/05/09 06:13:13;;;;;;;;;;;15.00;49.40;;;;;;2269901;56;20160;-74
2022/05/09 06:15:42;;;;;;;;;;;15.10;49.50;;;;;;2293337;54;20136;-74
2022/05/09 06:18:08;;;;;;;;;;;15.20;49.50;;;;;;2292774;54;20379;-74
2022/05/09 06:20:35;;;;;;;;;;;15.30;49.70;;;;;;2295479;54;20132;-74
2022/05/09 06:23:03;;;;;;;;;;;15.40;49.70;;;;;;2288881;55;20369;-74
2022/05/09 06:25:30;;;;;;;;;;;15.50;49.70;;;;;;2335972;54;20068;-74
2022/05/09 06:27:56;;;;;;;;;;;15.60;49.80;;;;;;2297158;54;20140;-75
2022/05/09 06:30:23;;;;;;;;;;;15.70;49.90;;;;;;2436556;54;20072;-74
2022/05/09 06:32:49;;;;;;;;;;;15.80;50.00;;;;;;2293891;54;20057;-77
2022/05/09 06:35:20;;;;;;;;;;;15.90;50.00;;;;;;2294060;54;20639;-74
2022/05/09 06:37:49;;;;;;;;;;;16.00;50.00;;;;;;2528670;54;20061;-75
2022/05/09 06:40:16;;;;;;;;;;;16.10;50.00;;;;;;2293530;54;20132;-76
2022/05/09 06:42:42;;;;;;;;;;;16.20;50.10;;;;;;2292862;54;20080;-75
2022/05/09 06:45:09;;;;;;;;;;;16.30;50.10;;;;;;2528187;54;20380;-77
2022/05/09 06:47:35;;;;;;;;;;;16.40;50.20;;;;;;2293768;54;20057;-75
2022/05/09 06:50:02;;;;;;;;;;;16.60;50.30;;;;;;2293553;54;20065;-75
2022/05/09 06:52:29;;;;;;;;;;;16.70;50.40;;;;;;2471038;54;20729;-76
2022/05/09 06:54:55;;;;;;;;;;;16.80;50.40;;;;;;2292573;54;20672;-76
2022/05/09 06:57:22;;;;;;;;;;;16.90;50.50;;;;;;2295562;54;20365;-77
2022/05/09 06:59:48;;;;;;;;;;;17.00;50.60;;;;;;2293269;54;20048;-75
2022/05/09 07:02:14;;;;;;;;;;;17.20;50.80;;;;;;2294374;54;20076;-76
2022/05/09 07:04:41;;;;;;;;;;;17.40;51.10;;;;;;2320014;54;20141;-76
2022/05/09 07:07:07;;;;;;;;;;;17.60;51.50;;;;;;2293530;54;20076;-76
2022/05/09 07:09:34;;;;;;;;;;;18.00;52.00;;;;;;2289414;54;20080;-75
2022/05/09 07:12:00;;;;;;;;;;;18.30;52.40;;;;;;2292342;54;20152;-75
2022/05/09 07:14:27;;;;;;;;;;;18.60;52.40;;;;;;2292857;54;20105;-75
2022/05/09 07:16:53;;;;;;;;;;;18.90;52.40;;;;;;2345181;54;20358;-76
2022/05/09 07:19:21;;;;;;;;;;;19.20;52.30;;;;;;2293518;54;20404;-75
2022/05/09 07:21:47;;;;;;;;;;;19.40;52.10;;;;;;2528310;54;20726;-78
2022/05/09 07:24:14;;;;;;;;;;;19.60;51.80;;;;;;2373945;54;20124;-76
2022/05/09 07:26:41;;;;;;;;;;;19.90;52.10;;;;;;2293744;54;20089;-75
2022/05/09 07:29:09;;;;;;;;;;;20.30;52.60;;;;;;2293080;54;20060;-75
2022/05/09 07:31:35;;;;;;;;;;;20.70;53.00;;;;;;2293388;54;20072;-75
2022/05/09 07:34:01;;;;;;;;;;;21.10;53.10;;;;;;2293498;54;20137;-75
2022/05/09 07:36:28;;;;;;;;;;;21.50;53.10;;;;;;2352778;54;20077;-75
2022/05/09 07:38:54;;;;;;;;;;;21.80;52.70;;;;;;2294261;54;20080;-76
2022/05/09 07:41:20;;;;;;;;;;;22.10;52.30;;;;;;2293114;54;20084;-76
2022/05/09 07:43:47;;;;;;;;;;;22.30;51.70;;;;;;2292738;54;20565;-76
2022/05/09 07:46:13;;;;;;;;;;;22.50;51.20;;;;;;2293187;54;20081;-76
2022/05/09 07:49:02;;;;;;;;;;;22.60;50.70;;;;;;2293622;54;20235;-77
2022/05/09 07:51:28;;;;;;;;;;;22.70;50.50;;;;;;2290422;54;20163;-77
2022/05/09 07:53:54;;;;;;;;;;;22.80;50.40;;;;;;2286823;54;20146;-77
2022/05/09 07:56:21;;;;;;;;;;;22.90;50.40;;;;;;2517756;54;20075;-76
2022/05/09 07:58:47;;;;;;;;;;;23.00;50.20;;;;;;2293711;54;20081;-76
2022/05/09 08:01:13;;;;;;;;;;;23.10;50.50;;;;;;2292507;54;20121;-74
2022/05/09 08:03:42;;;;;;;;;;;23.10;49.50;;;;;;2383453;54;20179;-77
2022/05/09 08:06:08;;;;;;;;;;;23.10;49.30;;;;;;2302103;55;20130;-78
2022/05/09 08:08:36;;;;;;;;;;;23.10;49.00;;;;;;2293516;54;20124;-76
2022/05/09 08:11:02;;;;;;;;;;;23.00;48.80;;;;;;2296786;54;20071;-76
2022/05/09 08:13:30;;;;;;;;;;;22.90;48.50;;;;;;2289172;54;20473;-76
2022/05/09 08:15:59;;;;;;;;;;;22.90;48.40;;;;;;2446713;54;20392;-76
2022/05/09 08:18:26;;;;;;;;;;;22.80;48.20;;;;;;2293183;54;20297;-78
2022/05/09 08:20:55;;;;;;;;;;;22.80;48.20;;;;;;2293125;54;20310;-76
2022/05/09 08:23:22;;;;;;;;;;;22.70;48.10;;;;;;2359947;54;20147;-76
2022/05/09 08:25:49;;;;;;;;;;;22.70;48.20;;;;;;2317297;55;20077;-74
2022/05/09 08:28:16;;;;;;;;;;;22.60;48.10;;;;;;2382715;54;20060;-75
2022/05/09 08:30:43;;;;;;;;;;;22.60;48.20;;;;;;2382208;54;20077;-77
2022/05/09 08:33:11;;;;;;;;;;;22.60;48.20;;;;;;2335285;54;20486;-75
2022/05/09 08:35:37;;;;;;;;;;;22.60;48.20;;;;;;2342915;54;20077;-75
2022/05/09 08:38:03;;;;;;;;;;;22.60;48.30;;;;;;2292354;54;20139;-76
2022/05/09 08:40:33;;;;;;;;;;;22.60;48.30;;;;;;2292690;54;20077;-75
2022/05/09 08:43:05;;;;;;;;;;;22.70;48.50;;;;;;2341696;54;20116;-78
2022/05/09 08:45:35;;;;;;;;;;;22.80;48.80;;;;;;2289200;54;20560;-76
2022/05/09 08:48:22;;;;;;;;;;;22.80;48.90;;;;;;2303831;54;20308;-77
2022/05/09 08:50:52;;;;;;;;;;;23.00;49.10;;;;;;2381534;54;20104;-76
2022/05/09 08:53:23;;;;;;;;;;;23.10;49.00;;;;;;2291872;54;20089;-77
2022/05/09 08:55:52;;;;;;;;;;;23.20;49.00;;;;;;2295572;54;20154;-75
2022/05/09 08:58:37;;;;;;;;;;;23.20;49.60;;;;;;2278874;55;20129;-75
2022/05/09 09:01:32;;;;;;;;;;;23.40;49.10;;;;;;2528478;53;1330886;-77
2022/05/09 09:05:49;;;;;;;;;;;23.50;49.20;;;;;;2330450;53;21093;-76
2022/05/09 09:08:30;;;;;;;;;;;23.70;49.30;;;;;;2315636;53;22778;-74
2022/05/09 09:11:08;;;;;;;;;;;23.90;49.30;;;;;;2332038;53;20783;-76
2022/05/09 09:13:46;;;;;;;;;;;24.10;49.40;;;;;;2396475;53;46539;-75
2022/05/09 09:16:18;;;;;;;;;;;24.20;49.40;;;;;;2336661;54;20071;-75
2022/05/09 09:18:50;;;;;;;;;;;24.30;49.30;;;;;;2330578;54;20106;-77
2022/05/09 09:21:23;;;;;;;;;;;24.40;49.30;;;;;;2579139;53;20127;-76
2022/05/09 09:24:08;;;;;;;;;;;24.50;49.20;;;;;;2579594;53;20332;-76
2022/05/09 09:31:39;;;;;;;;;;;24.60;49.10;;;;;;2393692;53;20055;-74
2022/05/09 09:34:24;;;;;;;;;;;24.80;49.20;;;;;;2334963;54;20750;-75
2022/05/09 09:36:56;;;;;;;;;;;24.90;48.80;;;;;;2335206;55;20075;-78
2022/05/09 09:39:26;;;;;;;;;;;25.00;48.70;;;;;;2505909;53;20180;-75
2022/05/09 09:41:55;;;;;;;;;;;25.10;48.60;;;;;;2353273;53;20131;-75
2022/05/09 09:44:22;;;;;;;;;;;25.10;48.30;;;;;;2335232;55;20151;-78
2022/05/09 09:47:07;;;;;;;;;;;25.20;48.40;;;;;;2373306;53;20071;-75
2022/05/09 09:49:38;;;;;;;;;;;25.20;48.20;;;;;;2335982;55;20402;-77
2022/05/09 09:52:12;;;;;;;;;;;25.20;48.00;;;;;;2335347;55;20104;-76
2022/05/09 09:54:38;;;;;;;;;;;25.30;48.00;;;;;;2479237;53;20067;-75
2022/05/09 09:57:17;;;;;;;;;;;25.30;47.90;;;;;;2334932;55;20087;-76
2022/05/09 09:59:44;;;;;;;;;;;25.30;47.70;;;;;;2400775;54;20587;-77
2022/05/09 10:02:32;;;;;;;;;;;25.30;47.40;;;;;;2308735;54;20072;-77
2022/05/09 10:05:08;;;;;;;;;;;25.40;47.50;;;;;;2378859;53;20188;-75
2022/05/09 10:07:35;;;;;;;;;;;25.40;47.60;;;;;;2356735;53;20083;-77
2022/05/09 10:10:17;;;;;;;;;;;25.40;47.60;;;;;;2372206;53;20082;-76
2022/05/09 10:12:48;;;;;;;;;;;25.50;47.60;;;;;;2344946;53;20122;-74
2022/05/09 10:15:47;;;;;;;;;;;25.60;47.70;;;;;;2393144;52;20071;-75
2022/05/09 10:18:24;;;;;;;;;;;25.60;47.70;;;;;;2344014;53;21349;-76
2022/05/09 10:21:17;;;;;;;;;;;25.70;47.80;;;;;;2344014;53;20138;-74
2022/05/09 10:26:32;;;;;;;;;;;26.00;47.70;;;;;;2344593;53;20126;-74
2022/05/09 10:29:00;;;;;;;;;;;26.00;47.60;;;;;;2400391;52;20075;-75
2022/05/09 10:31:30;;;;;;;;;;;26.20;47.50;;;;;;2344286;53;20111;-75
2022/05/09 10:34:00;;;;;;;;;;;26.30;47.50;;;;;;2489185;52;20079;-75
2022/05/09 10:36:29;;;;;;;;;;;26.30;47.40;;;;;;2344091;53;20062;-77
2022/05/09 10:39:01;;;;;;;;;;;26.40;47.30;;;;;;2344160;53;20123;-74
2022/05/09 10:41:31;;;;;;;;;;;26.50;47.30;;;;;;2341752;54;20097;-73
2022/05/09 10:44:04;;;;;;;;;;;26.60;47.10;;;;;;2343447;55;20175;-75
2022/05/09 10:46:49;;;;;;;;;;;26.70;47.00;;;;;;2344238;55;20127;-75
2022/05/09 10:50:49;;;;;;;;;;;26.70;46.90;;;;;;2450694;53;20407;-76
2022/05/09 10:53:34;;;;;;;;;;;26.90;46.80;;;;;;2343300;54;20115;-75
2022/05/09 10:56:08;;;;;;;;;;;27.00;46.60;;;;;;2343531;55;20118;-77
2022/05/09 10:58:45;;;;;;;;;;;27.10;46.50;;;;;;2347833;53;20062;-77
2022/05/09 11:01:14;;;;;;;;;;;27.10;46.50;;;;;;2346315;53;20087;-77
2022/05/09 11:03:41;;;;;;;;;;;27.20;46.40;;;;;;2421766;52;20444;-77
2022/05/09 11:07:31;;;;;;;;;;;27.30;46.20;;;;;;2343919;55;20146;-77
2022/05/09 11:10:14;;;;;;;;;;;27.30;46.10;;;;;;2342737;55;20062;-72
2022/05/09 11:12:58;;;;;;;;;;;27.40;46.10;;;;;;2363373;53;20087;-74
2022/05/09 11:16:14;;;;;;;;;;;27.50;46.10;;;;;;2516552;52;20304;-72
2022/05/09 11:18:53;;;;;;;;;;;27.50;45.90;;;;;;2342465;53;20090;-73
2022/05/09 11:22:42;;;;;;;;;;;27.60;45.80;;;;;;2430877;53;20079;-73
2022/05/09 11:27:46;;;;;;;;;;;27.70;45.80;;;;;;2342304;54;20134;-73
2022/05/09 11:30:28;;;;;;;;;;;27.80;45.60;;;;;;2570654;53;20067;-73
2022/05/09 11:33:11;;;;;;;;;;;27.90;45.50;;;;;;2342876;55;20186;-72
2022/05/09 11:35:37;;;;;;;;;;;27.90;44.90;;;;;;2351025;54;20059;-73
2022/05/09 11:38:25;;;;;;;;;;;27.90;45.00;;;;;;2472778;53;20071;-73
2022/05/09 11:40:59;;;;;;;;;;;28.00;44.90;;;;;;2346187;53;20127;-73
2022/05/09 11:43:29;;;;;;;;;;;28.00;44.70;;;;;;2342795;53;20080;-73
2022/05/09 11:46:17;;;;;;;;;;;28.10;44.50;;;;;;2347364;53;20082;-73
2022/05/09 11:48:53;;;;;;;;;;;28.10;45.00;;;;;;2347128;54;20082;-73
2022/05/09 11:51:33;;;;;;;;;;;28.10;44.40;;;;;;2343181;53;20070;-73
2022/05/09 11:54:00;;;;;;;;;;;28.20;44.40;;;;;;2356194;53;20309;-72
2022/05/09 11:56:27;;;;;;;;;;;28.20;44.40;;;;;;2342484;53;20083;-74
2022/05/09 11:58:53;;;;;;;;;;;28.30;44.60;;;;;;2393529;53;20295;-73
2022/05/09 12:01:38;;;;;;;;;;;28.40;44.10;;;;;;2345956;53;20182;-73
2022/05/09 12:04:06;;;;;;;;;;;28.50;44.20;;;;;;2343277;53;20146;-71
2022/05/09 12:06:36;;;;;;;;;;;28.60;44.20;;;;;;2406952;53;20139;-72
2022/05/09 12:09:08;;;;;;;;;;;28.60;44.00;;;;;;2346420;53;20121;-73
2022/05/09 12:11:47;;;;;;;;;;;28.60;43.70;;;;;;2343334;55;20099;-73
2022/05/09 12:14:32;;;;;;;;;;;28.60;43.50;;;;;;2422479;53;20061;-73
2022/05/09 12:16:59;;;;;;;;;;;28.60;43.50;;;;;;2341620;54;20075;-73
2022/05/09 12:19:33;;;;;;;;;;;28.60;43.70;;;;;;2418262;53;20107;-72
2022/05/09 12:22:27;;;;;;;;;;;28.60;43.60;;;;;;2343511;53;20071;-71
2022/05/09 12:24:54;;;;;;;;;;;28.70;43.70;;;;;;2343080;53;20536;-71
2022/05/09 12:34:08;;;;;;;;;;;28.70;43.50;;;;;;2342173;55;20494;-73
2022/05/09 12:36:35;;;;;;;;;;;28.70;43.40;;;;;;2413973;53;20380;-74
2022/05/09 12:39:47;;;;;;;;;;;28.80;43.30;;;;;;2368636;52;20077;-72
2022/05/09 12:42:38;;;;;;;;;;;28.90;43.30;;;;;;2497941;52;20087;-73
2022/05/09 12:45:08;;;;;;;;;;;29.00;43.20;;;;;;2407028;53;20407;-72
2022/05/09 12:47:35;;;;;;;;;;;29.00;43.00;;;;;;2343630;53;20348;-71
2022/05/09 12:50:11;;;;;;;;;;;29.00;42.90;;;;;;2345095;54;20063;-73
2022/05/09 12:52:41;;;;;;;;;;;29.00;42.80;;;;;;2344107;53;20328;-74
2022/05/09 12:57:52;;;;;;;;;;;29.20;43.20;;;;;;2328349;54;20414;-73
2022/05/09 13:00:27;;;;;;;;;;;29.20;43.10;;;;;;2381051;53;20150;-73
2022/05/09 13:03:23;;;;;;;;;;;29.30;43.00;;;;;;2342932;54;20074;-73
2022/05/09 13:05:50;;;;;;;;;;;29.40;42.90;;;;;;2343001;55;20081;-71
2022/05/09 13:08:16;;;;;;;;;;;29.60;42.60;;;;;;2347518;53;20214;-71
2022/05/09 13:10:54;;;;;;;;;;;29.60;42.50;;;;;;2347386;53;20071;-71
2022/05/09 13:13:32;;;;;;;;;;;29.70;42.50;;;;;;2342959;53;20066;-73
2022/05/09 13:16:01;;;;;;;;;;;29.70;42.40;;;;;;2478532;53;20059;-72
2022/05/09 13:18:28;;;;;;;;;;;29.80;42.30;;;;;;2343615;55;20515;-73
2022/05/09 13:21:04;;;;;;;;;;;29.80;42.40;;;;;;2418238;53;20130;-71
2022/05/09 13:23:34;;;;;;;;;;;29.90;42.50;;;;;;2411050;52;20563;-72
2022/05/09 13:26:02;;;;;;;;;;;30.00;42.50;;;;;;2346072;53;20127;-73
2022/05/09 13:28:30;;;;;;;;;;;30.10;42.30;;;;;;2495106;52;20094;-71
2022/05/09 13:30:59;;;;;;;;;;;30.20;42.30;;;;;;2444966;53;20087;-72
2022/05/09 13:33:27;;;;;;;;;;;30.30;42.20;;;;;;2513602;52;20067;-73
2022/05/09 13:36:03;;;;;;;;;;;30.30;41.70;;;;;;2347341;54;20086;-75
2022/05/09 13:38:41;;;;;;;;;;;30.30;41.30;;;;;;2344842;53;20075;-73
2022/05/09 13:41:09;;;;;;;;;;;30.30;41.20;;;;;;2428015;53;20110;-73
2022/05/09 13:43:39;;;;;;;;;;;30.30;41.10;;;;;;2343249;53;20071;-71
2022/05/09 13:46:09;;;;;;;;;;;30.30;41.00;;;;;;2346968;53;20099;-71
2022/05/09 13:48:35;;;;;;;;;;;30.30;41.20;;;;;;2429004;53;20466;-73
2022/05/09 13:51:01;;;;;;;;;;;30.40;41.40;;;;;;2358511;53;20120;-73
2022/05/09 13:53:35;;;;;;;;;;;30.50;41.40;;;;;;2435705;53;20114;-71
2022/05/09 13:56:05;;;;;;;;;;;30.60;41.00;;;;;;2344003;53;20054;-72
2022/05/09 13:58:34;;;;;;;;;;;30.60;40.90;;;;;;2443880;52;20067;-73
2022/05/09 14:01:00;;;;;;;;;;;30.60;40.70;;;;;;2368422;52;20362;-72
2022/05/09 14:03:43;;;;;;;;;;;30.70;40.70;;;;;;2343257;55;20102;-73
2022/05/09 14:06:16;;;;;;;;;;;30.70;40.60;;;;;;2357274;53;20186;-71
2022/05/09 14:08:45;;;;;;;;;;;30.80;40.60;;;;;;2335986;53;20065;-72
2022/05/09 14:11:11;;;;;;;;;;;30.80;40.60;;;;;;2351318;53;20083;-72
2022/05/09 14:13:46;;;;;;;;;;;30.80;40.30;;;;;;2343042;55;20067;-70
2022/05/09 14:16:22;;;;;;;;;;;30.90;40.30;;;;;;2401725;53;20123;-73
2022/05/09 14:18:51;;;;;;;;;;;30.90;40.10;;;;;;2447613;52;20086;-71
2022/05/09 14:21:18;;;;;;;;;;;30.80;39.60;;;;;;2378442;53;20071;-72
2022/05/09 14:23:47;;;;;;;;;;;30.80;39.20;;;;;;2505693;52;20082;-74
2022/05/09 14:30:04;;;;;;;;;;;30.70;39.20;;;;;;2347490;53;20074;-72
2022/05/09 14:32:43;;;;;;;;;;;30.60;39.20;;;;;;2346388;53;20403;-72
2022/05/09 14:35:10;;;;;;;;;;;30.60;39.30;;;;;;2352103;53;20190;-72
2022/05/09 14:37:52;;;;;;;;;;;30.60;39.50;;;;;;2405201;52;20090;-72
2022/05/09 14:40:22;;;;;;;;;;;30.60;39.20;;;;;;2343636;55;20070;-72
2022/05/09 14:43:08;;;;;;;;;;;30.70;39.30;;;;;;2386265;52;20106;-74
2022/05/09 14:45:36;;;;;;;;;;;30.70;39.50;;;;;;2343623;55;20079;-73
2022/05/09 14:48:14;;;;;;;;;;;30.70;39.30;;;;;;2527264;53;20066;-72
2022/05/09 14:50:42;;;;;;;;;;;30.80;39.40;;;;;;2344165;53;20071;-73
2022/05/09 14:53:16;;;;;;;;;;;30.80;39.20;;;;;;2346099;53;20086;-74
2022/05/09 14:58:34;;;;;;;;;;;30.80;38.80;;;;;;2344005;55;20123;-72
2022/05/09 15:01:02;;;;;;;;;;;30.80;38.50;;;;;;2342948;55;20311;-76
2022/05/09 15:03:29;;;;;;;;;;;30.80;38.50;;;;;;2356685;53;20276;-69
2022/05/09 15:06:00;;;;;;;;;;;30.70;38.30;;;;;;2373994;53;20063;-70
2022/05/09 15:08:30;;;;;;;;;;;30.70;38.40;;;;;;2343065;53;20055;-68
2022/05/09 15:10:58;;;;;;;;;;;30.70;38.50;;;;;;2344103;53;20070;-72
2022/05/09 15:13:25;;;;;;;;;;;30.70;38.40;;;;;;2344006;55;20856;-70
2022/05/09 15:15:53;;;;;;;;;;;30.60;38.10;;;;;;2344119;53;20062;-70